Timbo Grande, Brazil
Current Conditions -  °F | °C
As of 11:00 PM on Friday 24 Oct 2014 (Local Time) from SBJV Reporting Station
Broken Clouds Broken Clouds  
Wind Chill: 72°   Ceiling: 2500
Heat Index: 72°   Visibility: 6mi
Dew Point: 68°   Wind: 5mph
Humidity: 88%   Direction: 350°N
Pressure: 29.97"   Gusts: NA
Location:  26.62°S, 50.67°W
Report Text: SBJV 250100Z 35004KT 9999 BKN025 22/20 Q1015
Loading
Personal Weather Stations






























Interactive Weather Map
Tropical Storm Tracking
New forecast layout! Learn more

10-Day Weather Forecast

Advertisements
Track Severe Weather on mobile